Antelope, Montana
Current Conditions -  °F | °C
As of 5:52 AM on Saturday 25 Oct 2014 (Local Time) from KISN Reporting Station
Clear Clear  
Wind Chill: 35°   Ceiling: Unl
Heat Index: 35°   Visibility: 7mi
Dew Point: 29°   Wind: 0mph
Humidity: 78%   Direction: NA
Pressure: 30.11"   Gusts: NA
Location:  48.69°N, 104.46°W
Report Text: KISN 251152Z AUTO 00000KT 7SM CLR 02/M02 A3011 RMK AO2 SLP209 T00171017 10078 20017 50004
Loading
Personal Weather Stations






























Interactive Weather Map
Tropical Storm Tracking
New forecast layout! Learn more

10-Day Weather Forecast

Advertisements
Track Severe Weather on mobile